Terminal Aerodrome Forecast
Issued by NWS Buffalo, NY

Home | Current Version | Previous Version | Text Only | Print | Product List | Glossary On
Versions: 1 2 3 4 5 6 7 8 9 10 11 12 13 14 15 16 17 18 19 20 21 22 23 24 25 26 27 28
000
FTUS41 KBUF 220317 AAB
TAFBUF
TAF AMD
KBUF 220317Z 2203/2224 22006KT P6SM VCSH OVC040
     FM220500 21006KT P6SM OVC025
     FM221000 19006KT 6SM BR SCT008 BKN025
     FM221700 23010KT 5SM BR BKN015
     FM222000 23012KT 2SM BR BKN008=

USA.gov is the U.S. government's official web portal to all federal, state and local government web resources and services.